createdAt,value
2023-05-15T00:01:53.702Z,72.45
2023-05-15T00:04:20.268Z,73.08
2023-05-15T00:06:46.735Z,73.06
2023-05-15T00:09:13.150Z,72.23
2023-05-15T00:11:39.687Z,71.97
2023-05-15T00:14:06.243Z,72.19
2023-05-15T00:16:32.677Z,72.56
2023-05-15T00:18:59.265Z,72.76
2023-05-15T00:21:25.772Z,72.49
2023-05-15T00:23:54.055Z,73.79
2023-05-15T00:26:20.814Z,74.28
2023-05-15T00:28:47.226Z,74.19
2023-05-15T00:31:14.756Z,74.08
2023-05-15T00:33:41.376Z,73.44
2023-05-15T00:36:08.638Z,72.77
2023-05-15T00:38:35.319Z,71.92
2023-05-15T00:41:02.405Z,71.99
2023-05-15T00:43:29.391Z,71.54
2023-05-15T00:45:56.826Z,71.99
2023-05-15T00:48:25.362Z,72.22
2023-05-15T00:50:52.220Z,72.39
2023-05-15T00:53:18.859Z,72.68
2023-05-15T00:55:50.096Z,73.41
2023-05-15T00:58:18.585Z,74.21
2023-05-15T01:00:46.413Z,74.37
2023-05-15T01:03:13.498Z,74.25
2023-05-15T01:05:40.257Z,73.40
2023-05-15T01:08:12.338Z,72.87
2023-05-15T01:10:40.132Z,72.74
2023-05-15T01:13:07.223Z,72.84
2023-05-15T01:15:34.120Z,72.84
2023-05-15T01:18:00.769Z,72.99
2023-05-15T01:20:27.786Z,73.06
2023-05-15T01:23:16.103Z,73.01
2023-05-15T01:26:24.429Z,72.91
2023-05-15T01:29:07.271Z,73.49
2023-05-15T01:31:35.193Z,73.73
2023-05-15T01:34:06.484Z,73.70
2023-05-15T01:36:39.291Z,73.66
2023-05-15T01:39:07.051Z,73.58
2023-05-15T01:41:46.589Z,73.71
2023-05-15T01:44:45.451Z,73.75
2023-05-15T01:47:14.546Z,73.85
2023-05-15T01:49:44.891Z,73.88
2023-05-15T01:52:26.539Z,73.65
2023-05-15T01:54:55.304Z,73.65
2023-05-15T01:57:23.481Z,73.66
2023-05-15T01:59:51.545Z,73.56
2023-05-15T02:02:19.130Z,73.68
2023-05-15T02:04:45.902Z,73.57
2023-05-15T02:07:13.246Z,73.51
2023-05-15T02:09:41.218Z,73.56
2023-05-15T02:12:09.171Z,73.64
2023-05-15T02:14:37.159Z,73.76
2023-05-15T02:17:03.562Z,73.70
2023-05-15T02:19:29.988Z,73.55
2023-05-15T02:21:56.352Z,73.56
2023-05-15T02:24:22.722Z,73.95
2023-05-15T02:27:22.590Z,74.35
2023-05-15T02:30:18.171Z,74.79
2023-05-15T02:33:12.945Z,74.79
2023-05-15T02:35:54.037Z,74.40
2023-05-15T02:38:26.234Z,74.15
2023-05-15T02:40:55.515Z,73.49
2023-05-15T02:43:22.372Z,73.75
2023-05-15T02:45:48.904Z,73.59
2023-05-15T02:48:17.066Z,73.57
2023-05-15T02:50:44.065Z,73.28
2023-05-15T02:53:10.657Z,73.24
2023-05-15T02:55:38.001Z,73.11
2023-05-15T02:58:04.868Z,72.91
2023-05-15T03:00:31.278Z,72.61
2023-05-15T03:02:57.755Z,72.74
2023-05-15T03:05:24.495Z,72.05
2023-05-15T03:07:51.067Z,72.22
2023-05-15T03:10:17.534Z,71.29
2023-05-15T03:12:43.936Z,71.22
2023-05-15T03:15:10.468Z,71.47
2023-05-15T03:17:36.887Z,71.99
2023-05-15T03:20:04.773Z,72.10
2023-05-15T03:22:31.239Z,72.51
2023-05-15T03:24:57.877Z,72.72
2023-05-15T03:27:24.302Z,73.04
2023-05-15T03:29:51.101Z,73.18
2023-05-15T03:32:17.904Z,73.07
2023-05-15T03:34:44.459Z,73.33
2023-05-15T03:37:10.890Z,73.29
2023-05-15T03:39:37.301Z,73.38
2023-05-15T03:42:03.934Z,73.23
2023-05-15T03:44:30.380Z,73.05
2023-05-15T03:46:56.939Z,72.91
2023-05-15T03:49:23.700Z,72.57
2023-05-15T03:51:50.176Z,72.30
2023-05-15T03:54:16.736Z,72.35
2023-05-15T03:56:43.189Z,71.89
2023-05-15T03:59:09.897Z,72.11
2023-05-15T04:01:44.230Z,72.31
2023-05-15T04:04:22.010Z,72.79
2023-05-15T04:06:48.463Z,72.53
2023-05-15T04:09:14.949Z,72.96
2023-05-15T04:11:41.404Z,73.07
2023-05-15T04:14:07.889Z,72.65
2023-05-15T04:16:34.326Z,72.60
2023-05-15T04:19:01.048Z,72.48
2023-05-15T04:21:27.530Z,72.29
2023-05-15T04:23:54.179Z,72.05
2023-05-15T04:26:20.759Z,72.03
2023-05-15T04:29:00.027Z,71.68
2023-05-15T04:31:31.669Z,71.82
2023-05-15T04:33:58.679Z,72.10
2023-05-15T04:36:25.489Z,72.10
2023-05-15T04:38:52.095Z,72.24
2023-05-15T04:41:18.687Z,72.21
2023-05-15T04:43:45.916Z,72.53
2023-05-15T04:46:12.514Z,72.59
2023-05-15T04:48:38.930Z,72.43
2023-05-15T04:51:05.434Z,72.98
2023-05-15T04:53:31.824Z,72.41
2023-05-15T04:55:58.466Z,72.51
2023-05-15T04:58:24.932Z,72.95
2023-05-15T05:00:51.377Z,73.07
2023-05-15T05:03:17.875Z,72.76
2023-05-15T05:05:44.592Z,73.23
2023-05-15T05:08:11.092Z,72.75
2023-05-15T05:10:37.763Z,73.44
2023-05-15T05:13:04.256Z,72.75
2023-05-15T05:15:30.656Z,72.50
2023-05-15T05:17:57.077Z,72.76
2023-05-15T05:20:23.493Z,72.62
2023-05-15T05:22:49.939Z,72.42
2023-05-15T05:25:16.373Z,72.33
2023-05-15T05:27:43.067Z,71.31
2023-05-15T05:30:10.131Z,72.30
2023-05-15T05:32:36.671Z,72.28
2023-05-15T05:35:03.998Z,71.90
2023-05-15T05:37:30.652Z,71.87
2023-05-15T05:39:57.084Z,71.89
2023-05-15T05:42:23.498Z,70.65
2023-05-15T05:44:49.952Z,68.28
2023-05-15T05:47:16.572Z,70.15
2023-05-15T05:49:43.544Z,69.82
2023-05-15T05:52:10.084Z,70.44
2023-05-15T05:54:37.071Z,67.80
2023-05-15T05:57:03.701Z,66.57
2023-05-15T05:59:30.608Z,67.52
2023-05-15T06:01:57.365Z,66.16
2023-05-15T06:04:24.041Z,67.44
2023-05-15T06:06:50.735Z,67.55
2023-05-15T06:09:18.048Z,64.63
2023-05-15T06:11:45.415Z,62.34
2023-05-15T06:14:12.020Z,61.75
2023-05-15T06:16:38.586Z,62.57
2023-05-15T06:19:05.085Z,63.60
2023-05-15T06:21:31.543Z,63.48
2023-05-15T06:23:58.310Z,63.74
2023-05-15T06:26:25.582Z,63.59
2023-05-15T06:28:52.020Z,61.97
2023-05-15T06:31:18.623Z,61.67
2023-05-15T06:33:45.340Z,60.91
2023-05-15T06:36:12.073Z,60.89
2023-05-15T06:38:38.714Z,61.69
2023-05-15T06:41:05.569Z,61.52
2023-05-15T06:43:32.044Z,61.31
2023-05-15T06:45:59.210Z,60.46
2023-05-15T06:48:25.772Z,60.13
2023-05-15T06:50:52.537Z,58.45
2023-05-15T06:53:21.064Z,57.36
2023-05-15T06:55:48.565Z,56.79
2023-05-15T06:58:17.889Z,55.39
2023-05-15T07:00:44.410Z,53.54
2023-05-15T07:03:10.961Z,53.28
2023-05-15T07:05:37.356Z,50.89
2023-05-15T07:08:05.749Z,50.55
2023-05-15T07:10:32.497Z,50.92
2023-05-15T07:12:59.235Z,49.11
2023-05-15T07:15:25.798Z,48.77
2023-05-15T07:17:52.401Z,47.61
2023-05-15T07:20:19.088Z,45.90
2023-05-15T07:22:55.690Z,46.00
2023-05-15T07:25:24.444Z,46.02
2023-05-15T07:27:51.694Z,45.76
2023-05-15T07:30:18.638Z,44.31
2023-05-15T07:32:45.179Z,45.03
2023-05-15T07:35:11.979Z,44.59
2023-05-15T07:37:38.886Z,43.98
2023-05-15T07:40:05.906Z,44.18
2023-05-15T07:42:32.226Z,45.04
2023-05-15T07:44:58.785Z,46.30
2023-05-15T07:47:25.570Z,45.49
2023-05-15T07:49:52.078Z,47.15
2023-05-15T07:52:19.022Z,46.80
2023-05-15T07:54:45.442Z,44.52
2023-05-15T07:57:12.981Z,46.48
2023-05-15T07:59:39.842Z,45.39
2023-05-15T08:02:07.079Z,45.48
2023-05-15T08:04:33.690Z,42.95
2023-05-15T08:07:00.421Z,42.71
2023-05-15T08:09:26.882Z,41.50
2023-05-15T08:11:56.496Z,42.19
2023-05-15T08:14:23.193Z,42.25
2023-05-15T08:16:50.320Z,41.74
2023-05-15T08:19:16.991Z,40.50
2023-05-15T08:21:43.557Z,39.80
2023-05-15T08:24:10.031Z,41.72
2023-05-15T08:26:36.492Z,43.14
2023-05-15T08:29:03.537Z,45.47
2023-05-15T08:31:30.198Z,46.38
2023-05-15T08:33:56.705Z,47.00
2023-05-15T08:36:23.358Z,48.67
2023-05-15T08:38:49.948Z,49.13
2023-05-15T08:41:40.652Z,47.81
2023-05-15T08:44:09.496Z,47.50
2023-05-15T08:46:36.654Z,44.89
2023-05-15T08:49:11.696Z,43.76
2023-05-15T08:51:39.282Z,45.50
2023-05-15T08:54:06.382Z,45.77
2023-05-15T08:56:32.995Z,46.93
2023-05-15T08:58:59.836Z,47.17
2023-05-15T09:01:28.141Z,47.54
2023-05-15T09:03:54.639Z,47.73
2023-05-15T09:06:22.542Z,48.39
2023-05-15T09:08:50.326Z,48.49
2023-05-15T09:11:17.074Z,47.95
2023-05-15T09:13:43.465Z,46.86
2023-05-15T09:16:09.994Z,44.59
2023-05-15T09:18:38.793Z,41.17
2023-05-15T09:21:27.446Z,40.77
2023-05-15T09:23:55.566Z,41.71
2023-05-15T09:26:22.128Z,42.93
2023-05-15T09:28:49.372Z,41.98
2023-05-15T09:31:20.383Z,44.06
2023-05-15T09:33:47.138Z,44.07
2023-05-15T09:36:21.694Z,44.76
2023-05-15T09:38:49.719Z,46.15
2023-05-15T09:41:24.914Z,47.16
2023-05-15T09:43:51.422Z,47.08
2023-05-15T09:46:18.055Z,45.90
2023-05-15T09:48:44.758Z,46.55
2023-05-15T09:51:17.154Z,47.80
2023-05-15T09:53:49.248Z,48.50
2023-05-15T09:56:16.702Z,48.23
2023-05-15T09:59:01.706Z,47.42
2023-05-15T10:01:28.583Z,45.33
2023-05-15T10:04:03.478Z,44.32
2023-05-15T10:06:37.641Z,42.43
2023-05-15T10:09:06.216Z,42.22
2023-05-15T10:11:39.240Z,45.47
2023-05-15T10:14:08.440Z,49.06
2023-05-15T10:16:37.064Z,52.28
2023-05-15T10:19:05.465Z,53.94
2023-05-15T10:21:40.141Z,54.85
2023-05-15T10:24:07.679Z,56.38
2023-05-15T10:26:39.460Z,55.83
2023-05-15T10:29:08.809Z,55.88
2023-05-15T10:31:38.816Z,56.07
2023-05-15T10:34:06.718Z,55.50
2023-05-15T10:36:34.714Z,52.58
2023-05-15T10:39:03.669Z,48.86
2023-05-15T10:41:31.335Z,48.70
2023-05-15T10:43:59.914Z,49.91
2023-05-15T10:46:27.928Z,47.01
2023-05-15T10:48:54.726Z,42.74
2023-05-15T10:51:27.565Z,46.09
2023-05-15T10:53:55.385Z,45.58
2023-05-15T10:56:26.784Z,43.15
2023-05-15T10:58:54.685Z,40.16
2023-05-15T11:01:32.316Z,42.35
2023-05-15T11:04:10.602Z,39.04
2023-05-15T11:06:39.228Z,41.75
2023-05-15T11:09:26.581Z,46.06
2023-05-15T11:11:57.064Z,46.86
2023-05-15T11:14:25.556Z,45.63
2023-05-15T11:16:55.217Z,47.78
2023-05-15T11:19:35.074Z,49.46
2023-05-15T11:22:08.887Z,49.74
2023-05-15T11:25:06.871Z,49.90
2023-05-15T11:27:39.742Z,50.78
2023-05-15T11:30:07.288Z,50.64
2023-05-15T11:33:21.236Z,51.81
2023-05-15T11:35:48.589Z,51.02
2023-05-15T11:38:24.948Z,49.85
2023-05-15T11:40:55.893Z,49.32
2023-05-15T11:43:37.368Z,48.37
2023-05-15T11:46:07.759Z,46.77
2023-05-15T11:48:39.860Z,48.30
2023-05-15T11:51:18.686Z,46.90
2023-05-15T11:53:45.535Z,47.27
2023-05-15T11:56:19.312Z,45.98
2023-05-15T11:58:49.599Z,45.20
2023-05-15T12:01:16.381Z,45.54
2023-05-15T12:03:42.970Z,47.21
2023-05-15T12:06:10.788Z,46.77
2023-05-15T12:08:38.613Z,44.90
2023-05-15T12:11:05.948Z,46.38
2023-05-15T12:13:33.301Z,46.19
2023-05-15T12:16:01.869Z,47.19
2023-05-15T12:18:28.519Z,48.00
2023-05-15T12:20:55.527Z,50.24
2023-05-15T12:23:24.265Z,49.12
2023-05-15T12:25:57.626Z,51.00
2023-05-15T12:28:24.661Z,46.16
2023-05-15T12:30:51.499Z,45.04
2023-05-15T12:33:18.648Z,45.50
2023-05-15T12:35:49.980Z,44.94
2023-05-15T12:38:16.721Z,43.76
2023-05-15T12:40:44.147Z,42.13
2023-05-15T12:43:11.103Z,43.10
2023-05-15T12:45:41.701Z,43.04
2023-05-15T12:48:13.436Z,42.54
2023-05-15T12:50:40.157Z,42.60
2023-05-15T12:53:06.796Z,40.53
2023-05-15T12:55:35.305Z,40.78
2023-05-15T12:58:09.167Z,39.03
2023-05-15T13:00:37.331Z,39.41
2023-05-15T13:03:05.147Z,38.50
2023-05-15T13:05:33.067Z,38.13
2023-05-15T13:08:00.450Z,39.37
2023-05-15T13:10:27.258Z,40.46
2023-05-15T13:12:55.903Z,41.14
2023-05-15T13:15:26.747Z,41.24
2023-05-15T13:17:56.635Z,39.09
2023-05-15T13:20:24.328Z,38.31
2023-05-15T13:22:51.642Z,38.95
2023-05-15T13:25:19.103Z,37.02
2023-05-15T13:27:47.118Z,39.71
2023-05-15T13:30:15.215Z,39.26
2023-05-15T13:32:41.678Z,37.28
2023-05-15T13:35:08.921Z,39.25
2023-05-15T13:37:37.814Z,39.03
2023-05-15T13:40:09.799Z,39.78
2023-05-15T13:42:40.689Z,39.22
2023-05-15T13:45:11.964Z,39.78
2023-05-15T13:47:39.538Z,40.38
2023-05-15T13:50:10.796Z,41.41
2023-05-15T13:52:37.958Z,40.58
2023-05-15T13:55:04.882Z,41.11
2023-05-15T13:57:32.150Z,41.75
2023-05-15T13:59:59.109Z,42.07
2023-05-15T14:02:29.282Z,42.92
2023-05-15T14:04:55.895Z,43.86
2023-05-15T14:07:23.664Z,43.96
2023-05-15T14:09:51.011Z,43.05
2023-05-15T14:12:17.734Z,44.45
2023-05-15T14:14:47.158Z,44.73
2023-05-15T14:17:14.961Z,44.45
2023-05-15T14:19:41.514Z,45.10
2023-05-15T14:22:08.326Z,47.00
2023-05-15T14:24:34.902Z,46.75
2023-05-15T14:27:01.706Z,48.26
2023-05-15T14:29:28.115Z,54.04
2023-05-15T14:31:54.608Z,55.14
2023-05-15T14:34:22.780Z,56.12
2023-05-15T14:36:49.940Z,55.84
2023-05-15T14:39:16.958Z,56.74
2023-05-15T14:41:44.801Z,54.22
2023-05-15T14:44:11.355Z,50.79
2023-05-15T14:46:38.173Z,51.46
2023-05-15T14:49:05.345Z,51.33
2023-05-15T14:51:32.281Z,49.90
2023-05-15T14:53:58.902Z,46.96
2023-05-15T14:56:25.872Z,47.82
2023-05-15T14:58:53.679Z,48.90
2023-05-15T15:01:20.761Z,49.29
2023-05-15T15:03:48.036Z,48.77
2023-05-15T15:06:14.629Z,46.67
2023-05-15T15:08:41.216Z,46.61
2023-05-15T15:11:07.868Z,44.62
2023-05-15T15:13:34.434Z,42.08
2023-05-15T15:16:00.938Z,41.98
2023-05-15T15:18:27.401Z,42.51
2023-05-15T15:20:53.806Z,40.69
2023-05-15T15:23:20.511Z,38.95
2023-05-15T15:25:46.975Z,41.61
2023-05-15T15:28:13.426Z,41.56
2023-05-15T15:30:40.098Z,41.83
2023-05-15T15:33:06.717Z,41.05
2023-05-15T15:35:33.246Z,41.88
2023-05-15T15:37:59.689Z,42.57
2023-05-15T15:40:26.579Z,41.87
2023-05-15T15:42:54.182Z,41.10
2023-05-15T15:45:20.809Z,42.15
2023-05-15T15:47:47.381Z,42.96
2023-05-15T15:50:13.854Z,43.57
2023-05-15T15:52:40.419Z,43.91
2023-05-15T15:55:07.611Z,46.55
2023-05-15T15:57:34.020Z,46.29
2023-05-15T16:00:00.800Z,46.71
2023-05-15T16:02:28.728Z,45.53
2023-05-15T16:04:55.495Z,45.18
2023-05-15T16:07:24.373Z,46.06
2023-05-15T16:10:00.260Z,47.18
2023-05-15T16:12:37.287Z,47.48
2023-05-15T16:15:17.335Z,47.74
2023-05-15T16:17:51.277Z,50.72
2023-05-15T16:20:17.919Z,50.41
2023-05-15T16:22:44.609Z,50.43
2023-05-15T16:25:11.259Z,49.64
2023-05-15T16:27:37.685Z,50.59
2023-05-15T16:30:04.607Z,51.96
2023-05-15T16:32:31.870Z,54.02
2023-05-15T16:34:58.271Z,57.03
2023-05-15T16:37:24.738Z,60.33
2023-05-15T16:39:51.373Z,64.53
2023-05-15T16:42:17.952Z,63.74
2023-05-15T16:44:44.567Z,67.20
2023-05-15T16:47:11.003Z,67.80
2023-05-15T16:49:37.451Z,69.04
2023-05-15T16:52:04.026Z,69.48
2023-05-15T16:54:31.257Z,69.69
2023-05-15T16:56:57.896Z,70.41
2023-05-15T16:59:24.368Z,70.08
2023-05-15T17:01:51.066Z,70.29
2023-05-15T17:04:17.688Z,70.27
2023-05-15T17:06:44.501Z,70.18
2023-05-15T17:09:10.893Z,69.22
2023-05-15T17:11:37.432Z,68.49
2023-05-15T17:14:03.820Z,68.66
2023-05-15T17:16:30.315Z,69.13
2023-05-15T17:18:56.837Z,68.95
2023-05-15T17:21:23.565Z,69.79
2023-05-15T17:23:53.110Z,70.33
2023-05-15T17:26:19.595Z,70.35
2023-05-15T17:28:46.247Z,69.85
2023-05-15T17:31:12.744Z,69.49
2023-05-15T17:33:39.152Z,69.61
2023-05-15T17:36:05.933Z,69.69
2023-05-15T17:38:32.472Z,69.72
2023-05-15T17:40:59.091Z,69.26
2023-05-15T17:43:25.558Z,68.68
2023-05-15T17:45:51.967Z,68.52
2023-05-15T17:48:18.441Z,68.49
2023-05-15T17:50:45.222Z,68.79
2023-05-15T17:53:11.711Z,68.69
2023-05-15T17:55:38.188Z,68.66
2023-05-15T17:58:04.668Z,69.25
2023-05-15T18:00:31.255Z,67.86
2023-05-15T18:02:57.809Z,69.35
2023-05-15T18:05:24.692Z,70.04
2023-05-15T18:07:51.444Z,70.16
2023-05-15T18:10:17.870Z,70.60
2023-05-15T18:12:44.407Z,70.67
2023-05-15T18:15:11.146Z,70.38
2023-05-15T18:17:37.632Z,70.77
2023-05-15T18:20:05.707Z,71.05
2023-05-15T18:22:32.339Z,71.12
2023-05-15T18:24:58.976Z,70.84
2023-05-15T18:27:25.693Z,71.19
2023-05-15T18:29:52.178Z,70.29
2023-05-15T18:32:19.383Z,70.88
2023-05-15T18:34:47.056Z,70.93
2023-05-15T18:37:13.627Z,70.69
2023-05-15T18:39:40.097Z,70.69
2023-05-15T18:42:06.863Z,70.84
2023-05-15T18:44:34.819Z,71.09
2023-05-15T18:47:02.264Z,70.65
2023-05-15T18:49:29.615Z,70.70
2023-05-15T18:51:56.569Z,70.58
2023-05-15T18:54:23.010Z,70.32
2023-05-15T18:56:49.767Z,70.85
2023-05-15T18:59:16.321Z,70.65
2023-05-15T19:01:42.834Z,71.05
2023-05-15T19:04:09.517Z,70.79
2023-05-15T19:06:36.036Z,70.55
2023-05-15T19:09:03.148Z,71.21
2023-05-15T19:11:29.637Z,71.15
2023-05-15T19:13:56.155Z,71.62
2023-05-15T19:16:26.973Z,71.54
2023-05-15T19:18:53.497Z,72.00
2023-05-15T19:21:21.099Z,72.25
2023-05-15T19:23:50.817Z,71.73
2023-05-15T19:26:17.215Z,72.14
2023-05-15T19:28:44.069Z,71.94
2023-05-15T19:31:20.371Z,72.40
2023-05-15T19:33:54.297Z,72.39
2023-05-15T19:36:20.884Z,72.20
2023-05-15T19:38:47.859Z,72.57
2023-05-15T19:41:14.711Z,73.15
2023-05-15T19:43:41.302Z,72.56
2023-05-15T19:46:07.783Z,72.54
2023-05-15T19:48:34.387Z,72.68
2023-05-15T19:51:00.853Z,72.40
2023-05-15T19:53:27.393Z,72.42
2023-05-15T19:55:54.039Z,72.69
2023-05-15T19:58:22.341Z,72.61
2023-05-15T20:00:49.860Z,72.34
2023-05-15T20:03:16.379Z,72.81
2023-05-15T20:05:43.188Z,72.40
2023-05-15T20:08:09.669Z,72.41
2023-05-15T20:10:36.188Z,72.29
2023-05-15T20:13:03.093Z,72.30
2023-05-15T20:15:31.455Z,71.95
2023-05-15T20:17:57.870Z,71.76
2023-05-15T20:20:24.619Z,71.86
2023-05-15T20:22:51.226Z,71.93
2023-05-15T20:25:17.722Z,71.72
2023-05-15T20:27:44.132Z,71.91
2023-05-15T20:30:11.429Z,71.78
2023-05-15T20:32:38.008Z,71.97
2023-05-15T20:35:05.346Z,71.46
2023-05-15T20:37:31.945Z,71.33
2023-05-15T20:39:58.354Z,71.38
2023-05-15T20:42:27.925Z,70.97
2023-05-15T20:44:54.397Z,71.27
2023-05-15T20:47:20.863Z,71.02
2023-05-15T20:49:47.245Z,71.00
2023-05-15T20:52:13.740Z,71.18
2023-05-15T20:54:40.379Z,70.90
2023-05-15T20:57:06.986Z,70.84
2023-05-15T20:59:33.933Z,71.35
2023-05-15T21:02:00.714Z,71.66
2023-05-15T21:04:27.415Z,71.32
2023-05-15T21:06:54.790Z,71.84
2023-05-15T21:09:21.229Z,71.63
2023-05-15T21:11:47.661Z,71.82
2023-05-15T21:14:14.498Z,71.57
2023-05-15T21:16:41.252Z,71.66
2023-05-15T21:19:07.862Z,71.98
2023-05-15T21:21:35.303Z,72.03
2023-05-15T21:24:05.118Z,72.00
2023-05-15T21:26:31.574Z,72.18
2023-05-15T21:28:59.114Z,72.23
2023-05-15T21:31:26.482Z,72.45
2023-05-15T21:33:53.201Z,72.71
2023-05-15T21:36:20.798Z,72.32
2023-05-15T21:38:47.213Z,72.72
2023-05-15T21:41:13.659Z,72.58
2023-05-15T21:43:40.116Z,72.46
2023-05-15T21:46:06.689Z,72.56
2023-05-15T21:48:33.305Z,72.06
2023-05-15T21:50:59.880Z,71.81
2023-05-15T21:53:26.366Z,71.55
2023-05-15T21:55:59.906Z,71.78
2023-05-15T21:58:26.345Z,71.44
2023-05-15T22:00:52.958Z,72.01
2023-05-15T22:03:20.225Z,72.29
2023-05-15T22:05:48.254Z,72.59
2023-05-15T22:08:15.153Z,72.57
2023-05-15T22:10:41.893Z,72.54
2023-05-15T22:13:09.072Z,72.63
2023-05-15T22:15:36.179Z,72.01
2023-05-15T22:18:03.686Z,71.85
2023-05-15T22:20:30.245Z,72.92
2023-05-15T22:22:56.767Z,72.89
2023-05-15T22:25:23.261Z,73.83
2023-05-15T22:27:49.701Z,73.63
2023-05-15T22:30:16.290Z,73.36
2023-05-15T22:32:42.730Z,72.96
2023-05-15T22:35:09.739Z,72.84
2023-05-15T22:37:36.710Z,72.69
2023-05-15T22:40:04.149Z,73.46
2023-05-15T22:42:30.654Z,73.60
2023-05-15T22:44:57.757Z,73.89
2023-05-15T22:47:28.404Z,73.57
2023-05-15T22:49:55.134Z,73.51
2023-05-15T22:52:21.676Z,73.38
2023-05-15T22:54:48.117Z,73.71
2023-05-15T22:57:14.562Z,73.20
2023-05-15T22:59:41.365Z,73.55
2023-05-15T23:02:07.832Z,72.54
2023-05-15T23:04:34.573Z,72.88
2023-05-15T23:07:01.017Z,73.04
2023-05-15T23:09:27.424Z,73.16
2023-05-15T23:11:54.104Z,73.08
2023-05-15T23:14:21.729Z,72.99
2023-05-15T23:16:49.743Z,73.01
2023-05-15T23:19:16.576Z,72.95
2023-05-15T23:21:43.163Z,73.17
2023-05-15T23:24:09.580Z,72.91
2023-05-15T23:26:35.990Z,72.77
2023-05-15T23:29:02.558Z,73.02
2023-05-15T23:31:29.163Z,72.56
2023-05-15T23:33:55.574Z,72.83
2023-05-15T23:36:22.188Z,72.58
2023-05-15T23:38:48.591Z,72.54
2023-05-15T23:41:15.272Z,72.93
2023-05-15T23:43:41.748Z,73.03
2023-05-15T23:46:08.369Z,73.08
2023-05-15T23:48:34.806Z,73.29
2023-05-15T23:51:01.284Z,73.13
2023-05-15T23:53:27.981Z,73.46
2023-05-15T23:55:54.359Z,73.19
2023-05-15T23:58:21.487Z,73.03
